createdAt,value
2023-04-26T00:02:05.479Z,3.70
2023-04-26T00:04:39.502Z,3.40
2023-04-26T00:07:13.980Z,3.40
2023-04-26T00:09:48.576Z,3.20
2023-04-26T00:12:22.535Z,3.40
2023-04-26T00:14:56.100Z,3.10
2023-04-26T00:17:29.566Z,3.60
2023-04-26T00:20:07.079Z,3.00
2023-04-26T00:22:41.056Z,3.10
2023-04-26T00:25:15.282Z,2.50
2023-04-26T00:27:49.093Z,2.50
2023-04-26T00:30:23.385Z,2.30
2023-04-26T00:32:57.073Z,2.10
2023-04-26T00:35:30.504Z,2.30
2023-04-26T00:38:04.257Z,2.00
2023-04-26T00:40:37.743Z,1.90
2023-04-26T00:43:11.308Z,2.20
2023-04-26T00:45:45.332Z,1.90
2023-04-26T00:48:19.620Z,1.90
2023-04-26T00:50:53.693Z,1.70
2023-04-26T00:53:28.291Z,1.90
2023-04-26T00:56:02.288Z,2.10
2023-04-26T00:58:36.330Z,2.00
2023-04-26T01:01:10.723Z,1.90
2023-04-26T01:03:47.147Z,1.60
2023-04-26T01:06:21.166Z,1.60
2023-04-26T01:08:59.086Z,1.40
2023-04-26T01:11:32.861Z,1.70
2023-04-26T01:14:08.877Z,1.90
2023-04-26T01:16:42.615Z,2.00
2023-04-26T01:19:16.881Z,1.90
2023-04-26T01:21:52.530Z,1.80
2023-04-26T01:24:28.796Z,1.90
2023-04-26T01:27:04.524Z,1.50
2023-04-26T01:29:38.091Z,1.70
2023-04-26T01:32:12.268Z,1.70
2023-04-26T01:34:45.500Z,1.80
2023-04-26T01:37:19.270Z,2.10
2023-04-26T01:39:52.830Z,2.20
2023-04-26T01:42:27.936Z,2.00
2023-04-26T01:45:01.985Z,2.30
2023-04-26T01:47:55.576Z,1.90
2023-04-26T01:50:30.157Z,1.90
2023-04-26T01:53:03.755Z,1.70
2023-04-26T01:55:37.519Z,2.20
2023-04-26T01:58:11.076Z,2.00
2023-04-26T02:00:45.120Z,1.90
2023-04-26T02:03:18.789Z,1.80
2023-04-26T02:05:52.387Z,2.20
2023-04-26T02:08:26.156Z,2.10
2023-04-26T02:11:00.188Z,1.80
2023-04-26T02:13:33.658Z,2.30
2023-04-26T02:16:08.323Z,1.90
2023-04-26T02:18:42.492Z,2.10
2023-04-26T02:21:18.156Z,2.30
2023-04-26T02:23:52.147Z,2.20
2023-04-26T02:26:27.310Z,3.00
2023-04-26T02:29:00.862Z,2.60
2023-04-26T02:31:34.545Z,3.00
2023-04-26T02:34:08.171Z,2.90
2023-04-26T02:36:41.494Z,4.50
2023-04-26T02:39:16.035Z,3.60
2023-04-26T02:41:49.801Z,3.00
2023-04-26T02:44:23.331Z,4.40
2023-04-26T02:46:57.538Z,3.80
2023-04-26T02:49:32.323Z,3.10
2023-04-26T02:52:06.397Z,3.00
2023-04-26T02:54:40.191Z,4.00
2023-04-26T02:57:13.691Z,4.10
2023-04-26T02:59:47.818Z,3.40
2023-04-26T03:02:22.138Z,3.80
2023-04-26T03:04:57.421Z,4.30
2023-04-26T03:07:31.790Z,4.20
2023-04-26T03:10:06.485Z,3.40
2023-04-26T03:12:41.192Z,3.90
2023-04-26T03:15:15.346Z,3.50
2023-04-26T03:17:49.396Z,3.80
2023-04-26T03:20:23.262Z,3.90
2023-04-26T03:22:56.523Z,3.50
2023-04-26T03:25:30.227Z,3.80
2023-04-26T03:28:04.367Z,4.30
2023-04-26T03:30:38.280Z,4.20
2023-04-26T03:33:12.469Z,4.40
2023-04-26T03:35:46.485Z,3.60
2023-04-26T03:38:20.046Z,3.90
2023-04-26T03:40:53.917Z,3.80
2023-04-26T03:43:28.050Z,4.40
2023-04-26T03:46:02.100Z,4.50
2023-04-26T03:48:35.672Z,4.10
2023-04-26T03:51:09.572Z,5.50
2023-04-26T03:53:44.151Z,5.10
2023-04-26T03:56:17.961Z,4.50
2023-04-26T03:58:51.649Z,4.10
2023-04-26T04:01:26.232Z,4.30
2023-04-26T04:04:00.678Z,5.10
2023-04-26T04:06:35.914Z,4.20
2023-04-26T04:09:09.665Z,4.80
2023-04-26T04:11:45.157Z,5.00
2023-04-26T04:14:20.553Z,5.50
2023-04-26T04:16:54.163Z,5.60
2023-04-26T04:19:28.449Z,5.20
2023-04-26T04:22:02.394Z,4.70
2023-04-26T04:24:36.334Z,5.70
2023-04-26T04:27:09.762Z,5.70
2023-04-26T04:29:46.554Z,6.00
2023-04-26T04:32:20.346Z,6.30
2023-04-26T04:34:54.234Z,5.90
2023-04-26T04:37:27.741Z,5.60
2023-04-26T04:40:01.669Z,6.20
2023-04-26T04:42:38.434Z,6.40
2023-04-26T04:45:15.306Z,5.70
2023-04-26T04:47:49.621Z,5.60
2023-04-26T04:50:23.793Z,5.50
2023-04-26T04:52:57.156Z,5.80
2023-04-26T04:55:32.453Z,5.60
2023-04-26T04:58:07.102Z,5.30
2023-04-26T05:00:41.145Z,5.70
2023-04-26T05:03:34.406Z,5.60
2023-04-26T05:06:10.483Z,6.30
2023-04-26T05:08:44.418Z,5.90
2023-04-26T05:11:18.502Z,5.10
2023-04-26T05:13:52.989Z,5.00
2023-04-26T05:16:27.965Z,5.60
2023-04-26T05:19:02.425Z,5.50
2023-04-26T05:21:36.928Z,5.00
2023-04-26T05:24:10.554Z,5.30
2023-04-26T05:26:44.170Z,5.30
2023-04-26T05:29:41.917Z,4.90
2023-04-26T05:32:34.879Z,5.10
2023-04-26T05:35:19.370Z,5.00
2023-04-26T05:37:52.756Z,4.90
2023-04-26T05:40:28.481Z,5.50
2023-04-26T05:43:02.602Z,4.90
2023-04-26T05:45:37.393Z,4.90
2023-04-26T05:48:11.342Z,4.60
2023-04-26T05:50:45.140Z,4.60
2023-04-26T05:53:19.548Z,4.30
2023-04-26T05:55:53.658Z,4.30
2023-04-26T05:58:27.745Z,4.50
2023-04-26T06:01:02.296Z,4.50
2023-04-26T06:03:37.859Z,4.90
2023-04-26T06:06:12.693Z,4.30
2023-04-26T06:08:47.896Z,4.60
2023-04-26T06:11:21.743Z,4.30
2023-04-26T06:13:55.568Z,4.10
2023-04-26T06:16:29.440Z,3.60
2023-04-26T06:19:03.234Z,4.30
2023-04-26T06:21:36.716Z,3.80
2023-04-26T06:24:11.321Z,3.70
2023-04-26T06:26:45.965Z,3.80
2023-04-26T06:29:20.706Z,3.80
2023-04-26T06:31:55.109Z,3.50
2023-04-26T06:34:28.798Z,3.60
2023-04-26T06:37:03.056Z,3.60
2023-04-26T06:39:38.643Z,4.10
2023-04-26T06:42:12.519Z,4.90
2023-04-26T06:45:19.277Z,4.20
2023-04-26T06:47:54.689Z,4.50
2023-04-26T06:50:30.973Z,3.80
2023-04-26T06:53:05.006Z,4.00
2023-04-26T06:55:38.640Z,3.70
2023-04-26T06:58:12.572Z,3.30
2023-04-26T07:00:47.000Z,3.50
2023-04-26T07:03:21.775Z,3.30
2023-04-26T07:05:56.725Z,3.60
2023-04-26T07:08:30.700Z,3.50
2023-04-26T07:11:04.756Z,3.30
2023-04-26T07:13:39.908Z,3.40
2023-04-26T07:16:13.854Z,3.20
2023-04-26T07:18:48.768Z,3.20
2023-04-26T07:21:22.901Z,2.80
2023-04-26T07:23:58.744Z,3.50
2023-04-26T07:26:32.181Z,3.20
2023-04-26T07:29:05.920Z,2.80
2023-04-26T07:31:39.894Z,3.60
2023-04-26T07:34:13.519Z,2.70
2023-04-26T07:36:47.624Z,3.10
2023-04-26T07:39:21.283Z,2.70
2023-04-26T07:41:55.806Z,3.10
2023-04-26T07:47:03.629Z,2.60
2023-04-26T07:49:37.722Z,3.10
2023-04-26T07:52:11.723Z,3.40
2023-04-26T07:54:47.103Z,3.30
2023-04-26T07:57:21.233Z,3.50
2023-04-26T07:59:55.038Z,2.80
2023-04-26T08:02:43.335Z,3.80
2023-04-26T08:05:19.453Z,3.10
2023-04-26T08:07:53.350Z,3.30
2023-04-26T08:10:27.613Z,3.20
2023-04-26T08:13:03.826Z,3.30
2023-04-26T08:15:37.566Z,2.80
2023-04-26T08:18:11.151Z,3.80
2023-04-26T08:20:44.815Z,2.90
2023-04-26T08:23:20.015Z,2.70
2023-04-26T08:25:54.071Z,2.90
2023-04-26T08:28:28.000Z,2.70
2023-04-26T08:31:01.824Z,2.90
2023-04-26T08:33:35.800Z,2.60
2023-04-26T08:36:10.672Z,2.80
2023-04-26T08:38:44.230Z,2.50
2023-04-26T08:41:24.211Z,2.40
2023-04-26T08:44:00.119Z,2.50
2023-04-26T08:46:40.812Z,2.60
2023-04-26T08:49:25.699Z,2.30
2023-04-26T08:52:00.383Z,2.60
2023-04-26T08:54:36.579Z,2.60
2023-04-26T08:57:10.606Z,3.10
2023-04-26T08:59:45.021Z,3.00
2023-04-26T09:02:22.520Z,2.50
2023-04-26T09:04:56.902Z,2.50
2023-04-26T09:07:37.231Z,2.60
2023-04-26T09:10:13.399Z,2.00
2023-04-26T09:12:47.331Z,2.00
2023-04-26T09:15:22.249Z,2.30
2023-04-26T09:17:56.310Z,2.20
2023-04-26T09:20:31.650Z,2.70
2023-04-26T09:23:10.400Z,2.10
2023-04-26T09:25:44.157Z,2.20
2023-04-26T09:28:27.718Z,2.10
2023-04-26T09:31:02.399Z,2.30
2023-04-26T09:33:36.060Z,1.90
2023-04-26T09:36:19.003Z,2.10
2023-04-26T09:38:52.993Z,3.40
2023-04-26T09:41:32.587Z,2.60
2023-04-26T09:44:06.461Z,2.00
2023-04-26T09:46:40.022Z,3.00
2023-04-26T09:49:13.533Z,1.80
2023-04-26T09:52:04.255Z,2.10
2023-04-26T09:54:48.956Z,1.80
2023-04-26T09:57:24.018Z,2.10
2023-04-26T09:59:57.886Z,1.50
2023-04-26T10:02:32.207Z,1.90
2023-04-26T10:05:08.737Z,1.80
2023-04-26T10:07:43.089Z,2.00
2023-04-26T10:10:18.386Z,1.70
2023-04-26T10:12:52.153Z,2.00
2023-04-26T10:15:26.117Z,1.90
2023-04-26T10:18:00.692Z,1.80
2023-04-26T10:20:34.740Z,1.70
2023-04-26T10:23:16.004Z,2.00
2023-04-26T10:25:51.548Z,1.60
2023-04-26T10:29:02.646Z,1.60
2023-04-26T10:32:12.278Z,2.10
2023-04-26T10:34:47.840Z,2.00
2023-04-26T10:37:21.729Z,1.70
2023-04-26T10:40:30.008Z,2.10
2023-04-26T10:43:33.271Z,1.80
2023-04-26T10:46:43.482Z,2.00
2023-04-26T10:49:26.239Z,2.00
2023-04-26T10:52:17.610Z,2.30
2023-04-26T10:54:53.824Z,1.90
2023-04-26T10:57:48.078Z,2.20
2023-04-26T11:00:37.938Z,1.90
2023-04-26T11:03:15.682Z,2.20
2023-04-26T11:06:10.101Z,2.10
2023-04-26T11:08:43.779Z,2.50
2023-04-26T11:11:21.441Z,2.20
2023-04-26T11:13:55.578Z,3.00
2023-04-26T11:16:32.406Z,2.30
2023-04-26T11:19:06.982Z,2.40
2023-04-26T11:21:41.969Z,2.20
2023-04-26T11:24:18.957Z,3.10
2023-04-26T11:26:56.494Z,2.60
2023-04-26T11:29:30.660Z,2.40
2023-04-26T11:32:04.260Z,1.90
2023-04-26T11:34:39.590Z,2.10
2023-04-26T11:37:13.652Z,2.30
2023-04-26T11:39:48.940Z,2.80
2023-04-26T11:42:28.671Z,2.10
2023-04-26T11:45:02.208Z,2.10
2023-04-26T11:47:36.942Z,2.20
2023-04-26T11:50:13.473Z,1.90
2023-04-26T11:52:47.808Z,2.50
2023-04-26T11:55:25.846Z,2.20
2023-04-26T11:57:59.619Z,2.00
2023-04-26T12:00:33.605Z,2.00
2023-04-26T12:03:11.933Z,2.00
2023-04-26T12:05:55.545Z,2.10
2023-04-26T12:08:29.669Z,1.90
2023-04-26T12:11:06.608Z,1.90
2023-04-26T12:13:43.092Z,2.80
2023-04-26T12:16:26.269Z,1.80
2023-04-26T12:19:01.353Z,2.20
2023-04-26T12:21:45.113Z,2.40
2023-04-26T12:24:30.222Z,2.30
2023-04-26T12:27:04.680Z,2.00
2023-04-26T12:29:38.613Z,2.50
2023-04-26T12:32:12.626Z,2.10
2023-04-26T12:34:46.983Z,1.90
2023-04-26T12:37:20.551Z,2.40
2023-04-26T12:39:54.087Z,2.10
2023-04-26T12:42:27.811Z,1.70
2023-04-26T12:45:01.141Z,2.40
2023-04-26T12:47:35.342Z,1.90
2023-04-26T12:50:12.330Z,2.20
2023-04-26T12:52:46.643Z,2.10
2023-04-26T12:55:22.438Z,2.00
2023-04-26T12:57:56.115Z,2.70
2023-04-26T13:00:30.270Z,2.30
2023-04-26T13:03:04.479Z,2.10
2023-04-26T13:05:38.578Z,2.30
2023-04-26T13:08:12.944Z,2.40
2023-04-26T13:10:46.853Z,2.00
2023-04-26T13:13:26.151Z,2.50
2023-04-26T13:16:03.718Z,2.20
2023-04-26T13:18:37.874Z,2.10
2023-04-26T13:21:11.527Z,2.00
2023-04-26T13:23:46.664Z,2.10
2023-04-26T13:26:20.873Z,2.60
2023-04-26T13:28:55.104Z,2.10
2023-04-26T13:31:29.104Z,2.10
2023-04-26T13:34:03.489Z,2.20
2023-04-26T13:36:37.585Z,2.80
2023-04-26T13:39:11.386Z,2.20
2023-04-26T13:41:45.625Z,1.90
2023-04-26T13:44:20.258Z,2.10
2023-04-26T13:46:54.905Z,1.90
2023-04-26T13:49:28.594Z,2.00
2023-04-26T13:52:02.208Z,1.90
2023-04-26T13:54:36.447Z,2.10
2023-04-26T13:57:12.186Z,1.90
2023-04-26T13:59:46.192Z,2.00
2023-04-26T14:02:20.049Z,1.80
2023-04-26T14:04:55.220Z,2.00
2023-04-26T14:07:29.726Z,2.10
2023-04-26T14:10:03.976Z,2.00
2023-04-26T14:12:37.833Z,1.90
2023-04-26T14:15:12.785Z,2.10
2023-04-26T14:17:47.714Z,2.30
2023-04-26T14:20:23.905Z,2.20
2023-04-26T14:22:57.674Z,2.20
2023-04-26T14:25:31.487Z,2.30
2023-04-26T14:28:05.579Z,2.40
2023-04-26T14:30:39.637Z,2.10
2023-04-26T14:33:13.235Z,2.30
2023-04-26T14:35:47.592Z,2.00
2023-04-26T14:38:21.608Z,3.00
2023-04-26T14:40:55.126Z,2.40
2023-04-26T14:43:28.952Z,2.40
2023-04-26T14:46:03.706Z,2.10
2023-04-26T14:48:37.512Z,2.50
2023-04-26T14:51:11.590Z,2.60
2023-04-26T14:53:45.216Z,2.50
2023-04-26T14:56:18.644Z,2.10
2023-04-26T14:58:52.428Z,2.30
2023-04-26T15:01:26.561Z,2.50
2023-04-26T15:04:01.247Z,2.50
2023-04-26T15:06:35.886Z,2.30
2023-04-26T15:09:12.049Z,2.30
2023-04-26T15:11:45.933Z,2.40
2023-04-26T15:14:19.877Z,2.40
2023-04-26T15:16:53.760Z,3.10
2023-04-26T15:19:27.500Z,2.80
2023-04-26T15:22:01.516Z,2.50
2023-04-26T15:24:39.199Z,2.60
2023-04-26T15:27:13.032Z,2.80
2023-04-26T15:29:46.577Z,2.60
2023-04-26T15:32:20.337Z,2.40
2023-04-26T15:34:53.994Z,2.80
2023-04-26T15:37:27.646Z,2.50
2023-04-26T15:40:01.560Z,2.70
2023-04-26T15:42:35.482Z,2.70
2023-04-26T15:45:11.613Z,2.50
2023-04-26T15:47:47.546Z,3.30
2023-04-26T15:50:21.257Z,2.50
2023-04-26T15:52:55.451Z,2.70
2023-04-26T15:55:29.403Z,3.10
2023-04-26T15:58:03.292Z,2.60
2023-04-26T16:00:37.522Z,3.00
2023-04-26T16:03:11.738Z,3.20
2023-04-26T16:05:45.476Z,3.00
2023-04-26T16:08:38.777Z,3.10
2023-04-26T16:11:14.976Z,2.90
2023-04-26T16:13:52.192Z,2.50
2023-04-26T16:16:26.460Z,2.80
2023-04-26T16:19:00.690Z,2.50
2023-04-26T16:21:34.488Z,3.20
2023-04-26T16:24:11.827Z,2.80
2023-04-26T16:26:47.230Z,2.50
2023-04-26T16:29:20.860Z,2.70
2023-04-26T16:31:54.468Z,2.90
2023-04-26T16:34:28.644Z,3.20
2023-04-26T16:37:02.617Z,3.30
2023-04-26T16:39:36.504Z,2.80
2023-04-26T16:42:10.618Z,3.50
2023-04-26T16:44:44.154Z,3.60
2023-04-26T16:47:18.172Z,3.30
2023-04-26T16:49:53.061Z,3.10
2023-04-26T16:52:27.221Z,3.40
2023-04-26T16:55:02.356Z,3.40
2023-04-26T16:57:35.832Z,2.80
2023-04-26T17:00:12.346Z,3.40
2023-04-26T17:02:46.413Z,3.00
2023-04-26T17:05:21.022Z,3.30
2023-04-26T17:07:56.267Z,3.30
2023-04-26T17:10:34.645Z,2.70
2023-04-26T17:13:10.339Z,3.20
2023-04-26T17:15:45.576Z,3.00
2023-04-26T17:18:19.404Z,3.10
2023-04-26T17:20:57.219Z,3.10
2023-04-26T17:23:33.210Z,3.10
2023-04-26T17:26:06.761Z,2.90
2023-04-26T17:28:40.949Z,2.80
2023-04-26T17:31:16.950Z,3.20
2023-04-26T17:33:51.958Z,2.80
2023-04-26T17:36:27.250Z,3.30
2023-04-26T17:39:00.934Z,3.00
2023-04-26T17:41:36.984Z,2.60
2023-04-26T17:44:13.880Z,2.70
2023-04-26T17:46:48.312Z,3.30
2023-04-26T17:49:26.757Z,3.50
2023-04-26T17:52:00.911Z,3.30
2023-04-26T17:54:34.767Z,3.60
2023-04-26T17:57:08.770Z,5.70
2023-04-26T17:59:43.842Z,3.90
2023-04-26T18:02:18.789Z,4.10
2023-04-26T18:04:56.040Z,3.50
2023-04-26T18:07:30.710Z,3.60
2023-04-26T18:10:09.758Z,3.40
2023-04-26T18:12:43.989Z,3.20
2023-04-26T18:15:19.688Z,5.70
2023-04-26T18:17:54.601Z,6.50
2023-04-26T18:20:29.571Z,3.40
2023-04-26T18:23:06.399Z,3.60
2023-04-26T18:25:41.890Z,3.40
2023-04-26T18:28:15.554Z,3.40
2023-04-26T18:30:50.270Z,4.00
2023-04-26T18:33:25.188Z,3.50
2023-04-26T18:35:59.691Z,3.30
2023-04-26T18:38:35.282Z,3.50
2023-04-26T18:41:10.087Z,3.60
2023-04-26T18:43:46.041Z,3.40
2023-04-26T18:46:20.882Z,3.40
2023-04-26T18:48:55.420Z,3.60
2023-04-26T18:51:32.798Z,4.80
2023-04-26T18:54:09.433Z,4.00
2023-04-26T18:56:45.741Z,3.50
2023-04-26T18:59:21.684Z,4.50
2023-04-26T19:01:56.805Z,4.90
2023-04-26T19:04:32.754Z,4.80
2023-04-26T19:07:07.169Z,4.20
2023-04-26T19:09:53.085Z,4.30
2023-04-26T19:12:31.741Z,4.70
2023-04-26T19:15:09.438Z,4.20
2023-04-26T19:17:46.679Z,5.00
2023-04-26T19:20:23.046Z,5.30
2023-04-26T19:25:34.197Z,4.50
2023-04-26T19:28:10.180Z,5.10
2023-04-26T19:30:48.046Z,4.60
2023-04-26T19:33:24.882Z,4.40
2023-04-26T19:36:00.893Z,4.70
2023-04-26T19:38:38.519Z,4.40
2023-04-26T19:43:50.516Z,5.40
2023-04-26T19:46:26.375Z,5.20
2023-04-26T19:49:03.390Z,5.90
2023-04-26T19:51:40.939Z,5.80
2023-04-26T19:54:20.331Z,6.70
2023-04-26T19:56:56.833Z,7.30
2023-04-26T19:59:36.002Z,8.20
2023-04-26T20:02:14.943Z,8.00
2023-04-26T20:04:51.241Z,7.70
2023-04-26T20:07:30.237Z,7.40
2023-04-26T20:12:43.686Z,7.60
2023-04-26T20:15:19.762Z,8.60
2023-04-26T20:17:55.849Z,9.60
2023-04-26T20:20:32.281Z,8.50
2023-04-26T20:23:08.550Z,7.60
2023-04-26T20:25:43.325Z,8.00
2023-04-26T20:28:18.585Z,7.80
2023-04-26T20:30:54.115Z,7.60
2023-04-26T20:33:31.112Z,7.50
2023-04-26T20:36:09.233Z,7.30
2023-04-26T20:41:17.998Z,7.50
2023-04-26T20:43:54.794Z,7.60
2023-04-26T20:46:29.062Z,6.80
2023-04-26T20:49:04.044Z,7.40
2023-04-26T20:51:38.000Z,7.60
2023-04-26T20:54:12.672Z,7.80
2023-04-26T20:56:46.955Z,8.80
2023-04-26T20:59:20.940Z,8.10
2023-04-26T21:01:54.570Z,7.50
2023-04-26T21:04:28.286Z,8.00
2023-04-26T21:07:02.317Z,8.70
2023-04-26T21:09:35.901Z,7.40
2023-04-26T21:12:10.286Z,7.80
2023-04-26T21:14:46.255Z,7.30
2023-04-26T21:17:20.956Z,7.60
2023-04-26T21:19:54.446Z,6.90
2023-04-26T21:22:28.550Z,7.60
2023-04-26T21:25:02.217Z,8.20
2023-04-26T21:27:36.108Z,8.50
2023-04-26T21:30:12.939Z,7.30
2023-04-26T21:32:46.439Z,7.60
2023-04-26T21:35:19.987Z,7.10
2023-04-26T21:37:53.571Z,8.00
2023-04-26T21:40:27.315Z,7.40
2023-04-26T21:43:05.245Z,7.40
2023-04-26T21:45:39.294Z,7.90
2023-04-26T21:48:13.161Z,7.70
2023-04-26T21:50:49.978Z,7.60
2023-04-26T21:53:23.204Z,7.80
2023-04-26T21:55:57.457Z,7.80
2023-04-26T21:58:31.547Z,7.70
2023-04-26T22:01:12.617Z,7.60
2023-04-26T22:03:46.850Z,6.80
2023-04-26T22:06:20.726Z,7.90
2023-04-26T22:08:54.417Z,8.30
2023-04-26T22:11:28.349Z,7.70
2023-04-26T22:14:02.009Z,8.00
2023-04-26T22:16:35.726Z,7.10
2023-04-26T22:19:09.956Z,7.20
2023-04-26T22:21:43.540Z,7.30
2023-04-26T22:24:17.862Z,7.90
2023-04-26T22:26:51.458Z,7.80
2023-04-26T22:29:25.576Z,8.70
2023-04-26T22:31:59.162Z,9.00
2023-04-26T22:34:32.517Z,8.20
2023-04-26T22:37:19.685Z,8.70
2023-04-26T22:39:56.917Z,7.70
2023-04-26T22:42:30.692Z,8.10
2023-04-26T22:45:04.510Z,8.40
2023-04-26T22:47:38.189Z,8.40
2023-04-26T22:50:13.476Z,9.60
2023-04-26T22:52:47.811Z,8.50
2023-04-26T22:55:21.881Z,7.80
2023-04-26T22:57:55.447Z,9.40
2023-04-26T23:00:28.995Z,9.40
2023-04-26T23:03:03.601Z,8.80
2023-04-26T23:05:38.117Z,8.90
2023-04-26T23:08:12.106Z,8.90
2023-04-26T23:10:45.601Z,9.00
2023-04-26T23:13:19.851Z,9.10
2023-04-26T23:15:53.461Z,9.10
2023-04-26T23:18:27.983Z,9.80
2023-04-26T23:21:01.778Z,9.80
2023-04-26T23:23:35.936Z,9.20
2023-04-26T23:26:09.890Z,9.40
2023-04-26T23:28:43.289Z,9.50
2023-04-26T23:31:17.315Z,8.90
2023-04-26T23:33:50.982Z,9.70
2023-04-26T23:36:25.061Z,9.70
2023-04-26T23:38:58.427Z,10.10
2023-04-26T23:41:32.164Z,9.30
2023-04-26T23:44:06.077Z,8.70
2023-04-26T23:46:40.264Z,8.40
2023-04-26T23:49:14.612Z,9.10
2023-04-26T23:51:48.608Z,9.00
2023-04-26T23:54:22.597Z,9.00
2023-04-26T23:56:56.145Z,8.60
2023-04-26T23:59:29.779Z,9.50
